sensor_id;sensor_type;location;lat;lon;timestamp;temperature;humidity
4584;DHT22;2304;47.606;12.186;2023-04-06T00:01:16;4.70;52.10
4584;DHT22;2304;47.606;12.186;2023-04-06T00:06:18;4.70;52.80
4584;DHT22;2304;47.606;12.186;2023-04-06T00:11:20;4.70;52.80
4584;DHT22;2304;47.606;12.186;2023-04-06T00:16:23;4.80;52.50
4584;DHT22;2304;47.606;12.186;2023-04-06T00:21:25;4.70;52.40
4584;DHT22;2304;47.606;12.186;2023-04-06T00:26:27;4.70;52.10
4584;DHT22;2304;47.606;12.186;2023-04-06T00:31:30;4.60;52.30
4584;DHT22;2304;47.606;12.186;2023-04-06T00:36:32;4.60;51.90
4584;DHT22;2304;47.606;12.186;2023-04-06T00:41:34;4.60;51.70
4584;DHT22;2304;47.606;12.186;2023-04-06T00:46:37;4.70;51.80
4584;DHT22;2304;47.606;12.186;2023-04-06T00:51:39;4.60;52.10
4584;DHT22;2304;47.606;12.186;2023-04-06T00:56:41;4.50;52.40
4584;DHT22;2304;47.606;12.186;2023-04-06T01:01:45;4.50;52.40
4584;DHT22;2304;47.606;12.186;2023-04-06T01:06:50;4.40;52.60
4584;DHT22;2304;47.606;12.186;2023-04-06T01:11:52;4.50;52.40
4584;DHT22;2304;47.606;12.186;2023-04-06T01:16:58;4.50;52.50
4584;DHT22;2304;47.606;12.186;2023-04-06T01:22:01;4.40;52.30
4584;DHT22;2304;47.606;12.186;2023-04-06T01:27:04;4.30;52.80
4584;DHT22;2304;47.606;12.186;2023-04-06T01:32:06;4.30;53.00
4584;DHT22;2304;47.606;12.186;2023-04-06T01:37:08;4.20;52.70
4584;DHT22;2304;47.606;12.186;2023-04-06T01:42:12;4.20;52.60
4584;DHT22;2304;47.606;12.186;2023-04-06T01:47:13;4.20;52.60
4584;DHT22;2304;47.606;12.186;2023-04-06T01:52:15;4.30;52.60
4584;DHT22;2304;47.606;12.186;2023-04-06T01:57:19;4.30;52.80
4584;DHT22;2304;47.606;12.186;2023-04-06T02:02:20;4.50;53.40
4584;DHT22;2304;47.606;12.186;2023-04-06T02:07:22;4.20;53.20
4584;DHT22;2304;47.606;12.186;2023-04-06T02:12:26;4.00;53.50
4584;DHT22;2304;47.606;12.186;2023-04-06T02:17:27;4.00;53.60
4584;DHT22;2304;47.606;12.186;2023-04-06T02:22:29;3.90;53.60
4584;DHT22;2304;47.606;12.186;2023-04-06T02:27:33;3.90;53.90
4584;DHT22;2304;47.606;12.186;2023-04-06T02:32:35;3.90;53.90
4584;DHT22;2304;47.606;12.186;2023-04-06T02:37:36;3.80;54.60
4584;DHT22;2304;47.606;12.186;2023-04-06T02:42:40;3.70;55.40
4584;DHT22;2304;47.606;12.186;2023-04-06T02:47:42;3.60;56.20
4584;DHT22;2304;47.606;12.186;2023-04-06T02:52:43;3.50;57.00
4584;DHT22;2304;47.606;12.186;2023-04-06T02:57:47;3.50;57.00
4584;DHT22;2304;47.606;12.186;2023-04-06T03:02:49;3.40;56.60
4584;DHT22;2304;47.606;12.186;2023-04-06T03:07:51;3.40;56.60
4584;DHT22;2304;47.606;12.186;2023-04-06T03:12:54;3.30;56.90
4584;DHT22;2304;47.606;12.186;2023-04-06T03:17:57;3.30;57.40
4584;DHT22;2304;47.606;12.186;2023-04-06T03:22:59;3.20;58.10
4584;DHT22;2304;47.606;12.186;2023-04-06T03:28:03;3.10;58.10
4584;DHT22;2304;47.606;12.186;2023-04-06T03:33:04;3.00;58.10
4584;DHT22;2304;47.606;12.186;2023-04-06T03:38:06;3.00;58.50
4584;DHT22;2304;47.606;12.186;2023-04-06T03:43:10;3.30;58.50
4584;DHT22;2304;47.606;12.186;2023-04-06T03:48:12;3.00;59.10
4584;DHT22;2304;47.606;12.186;2023-04-06T03:53:14;3.10;58.90
4584;DHT22;2304;47.606;12.186;2023-04-06T03:58:17;2.90;58.70
4584;DHT22;2304;47.606;12.186;2023-04-06T04:03:19;2.90;58.60
4584;DHT22;2304;47.606;12.186;2023-04-06T04:08:22;2.90;58.60
4584;DHT22;2304;47.606;12.186;2023-04-06T04:13:26;2.90;58.70
4584;DHT22;2304;47.606;12.186;2023-04-06T04:18:28;2.90;59.00
4584;DHT22;2304;47.606;12.186;2023-04-06T04:23:30;2.90;58.60
4584;DHT22;2304;47.606;12.186;2023-04-06T04:28:33;2.90;57.90
4584;DHT22;2304;47.606;12.186;2023-04-06T04:33:35;2.90;57.90
4584;DHT22;2304;47.606;12.186;2023-04-06T04:38:37;3.20;57.50
4584;DHT22;2304;47.606;12.186;2023-04-06T04:43:40;3.00;57.50
4584;DHT22;2304;47.606;12.186;2023-04-06T04:48:42;3.00;56.80
4584;DHT22;2304;47.606;12.186;2023-04-06T04:53:44;3.30;57.00
4584;DHT22;2304;47.606;12.186;2023-04-06T04:58:47;3.00;56.70
4584;DHT22;2304;47.606;12.186;2023-04-06T05:03:49;3.00;57.30
4584;DHT22;2304;47.606;12.186;2023-04-06T05:08:50;3.10;57.30
4584;DHT22;2304;47.606;12.186;2023-04-06T05:13:54;3.10;56.80
4584;DHT22;2304;47.606;12.186;2023-04-06T05:18:56;3.20;56.50
4584;DHT22;2304;47.606;12.186;2023-04-06T05:23:58;3.20;56.20
4584;DHT22;2304;47.606;12.186;2023-04-06T05:29:03;3.10;56.70
4584;DHT22;2304;47.606;12.186;2023-04-06T05:34:05;3.10;56.60
4584;DHT22;2304;47.606;12.186;2023-04-06T05:39:09;3.10;56.40
4584;DHT22;2304;47.606;12.186;2023-04-06T05:44:14;3.20;56.80
4584;DHT22;2304;47.606;12.186;2023-04-06T05:49:16;3.20;57.50
4584;DHT22;2304;47.606;12.186;2023-04-06T05:54:18;3.20;58.10
4584;DHT22;2304;47.606;12.186;2023-04-06T05:59:21;3.30;57.90
4584;DHT22;2304;47.606;12.186;2023-04-06T06:04:24;3.30;58.20
4584;DHT22;2304;47.606;12.186;2023-04-06T06:09:26;3.40;58.80
4584;DHT22;2304;47.606;12.186;2023-04-06T06:14:29;3.30;58.40
4584;DHT22;2304;47.606;12.186;2023-04-06T06:19:31;3.40;58.30
4584;DHT22;2304;47.606;12.186;2023-04-06T06:24:33;3.40;58.50
4584;DHT22;2304;47.606;12.186;2023-04-06T06:29:36;3.60;58.40
4584;DHT22;2304;47.606;12.186;2023-04-06T06:34:38;3.50;58.80
4584;DHT22;2304;47.606;12.186;2023-04-06T06:39:40;3.80;58.10
4584;DHT22;2304;47.606;12.186;2023-04-06T06:44:43;4.10;57.50
4584;DHT22;2304;47.606;12.186;2023-04-06T06:49:45;4.40;57.30
4584;DHT22;2304;47.606;12.186;2023-04-06T06:54:47;4.90;56.80
4584;DHT22;2304;47.606;12.186;2023-04-06T06:59:51;5.00;55.00
4584;DHT22;2304;47.606;12.186;2023-04-06T07:04:52;4.80;54.60
4584;DHT22;2304;47.606;12.186;2023-04-06T07:09:54;4.80;53.70
4584;DHT22;2304;47.606;12.186;2023-04-06T07:14:57;5.20;53.60
4584;DHT22;2304;47.606;12.186;2023-04-06T07:19:59;5.40;53.20
4584;DHT22;2304;47.606;12.186;2023-04-06T07:25:01;5.70;52.80
4584;DHT22;2304;47.606;12.186;2023-04-06T07:30:06;6.30;54.50
4584;DHT22;2304;47.606;12.186;2023-04-06T07:35:08;6.40;53.40
4584;DHT22;2304;47.606;12.186;2023-04-06T07:40:10;6.70;52.70
4584;DHT22;2304;47.606;12.186;2023-04-06T07:45:14;6.90;51.90
4584;DHT22;2304;47.606;12.186;2023-04-06T07:50:16;7.20;51.50
4584;DHT22;2304;47.606;12.186;2023-04-06T07:55:18;7.50;50.50
4584;DHT22;2304;47.606;12.186;2023-04-06T08:00:22;7.50;49.50
4584;DHT22;2304;47.606;12.186;2023-04-06T08:05:24;7.60;49.40
4584;DHT22;2304;47.606;12.186;2023-04-06T08:10:26;7.90;48.70
4584;DHT22;2304;47.606;12.186;2023-04-06T08:15:29;8.00;46.50
4584;DHT22;2304;47.606;12.186;2023-04-06T08:20:31;7.90;46.50
4584;DHT22;2304;47.606;12.186;2023-04-06T08:25:34;8.10;46.80
4584;DHT22;2304;47.606;12.186;2023-04-06T08:30:39;8.20;45.70
4584;DHT22;2304;47.606;12.186;2023-04-06T08:35:41;8.30;45.00
4584;DHT22;2304;47.606;12.186;2023-04-06T08:40:43;8.70;44.50
4584;DHT22;2304;47.606;12.186;2023-04-06T08:45:49;9.00;43.70
4584;DHT22;2304;47.606;12.186;2023-04-06T08:50:51;9.00;42.60
4584;DHT22;2304;47.606;12.186;2023-04-06T08:55:54;9.20;44.00
4584;DHT22;2304;47.606;12.186;2023-04-06T09:00:59;9.20;42.30
4584;DHT22;2304;47.606;12.186;2023-04-06T09:06:02;9.80;43.80
4584;DHT22;2304;47.606;12.186;2023-04-06T09:11:05;10.20;40.70
4584;DHT22;2304;47.606;12.186;2023-04-06T09:16:08;10.20;41.20
4584;DHT22;2304;47.606;12.186;2023-04-06T09:21:16;9.90;42.10
4584;DHT22;2304;47.606;12.186;2023-04-06T09:26:18;10.00;42.00
4584;DHT22;2304;47.606;12.186;2023-04-06T09:31:24;10.20;41.50
4584;DHT22;2304;47.606;12.186;2023-04-06T09:36:31;10.70;42.40
4584;DHT22;2304;47.606;12.186;2023-04-06T09:41:34;10.80;41.40
4584;DHT22;2304;47.606;12.186;2023-04-06T09:46:39;11.00;39.20
4584;DHT22;2304;47.606;12.186;2023-04-06T09:51:45;11.30;39.60
4584;DHT22;2304;47.606;12.186;2023-04-06T09:56:51;11.70;39.40
4584;DHT22;2304;47.606;12.186;2023-04-06T10:01:56;11.50;38.10
4584;DHT22;2304;47.606;12.186;2023-04-06T10:07:00;11.20;37.70
4584;DHT22;2304;47.606;12.186;2023-04-06T10:12:04;11.30;38.40
4584;DHT22;2304;47.606;12.186;2023-04-06T10:17:08;12.10;38.70
4584;DHT22;2304;47.606;12.186;2023-04-06T10:22:15;12.60;35.90
4584;DHT22;2304;47.606;12.186;2023-04-06T10:27:28;12.60;34.70
4584;DHT22;2304;47.606;12.186;2023-04-06T10:32:35;12.60;34.20
4584;DHT22;2304;47.606;12.186;2023-04-06T10:37:49;12.80;33.60
4584;DHT22;2304;47.606;12.186;2023-04-06T10:42:52;13.30;32.30
4584;DHT22;2304;47.606;12.186;2023-04-06T10:47:58;13.90;33.70
4584;DHT22;2304;47.606;12.186;2023-04-06T10:53:02;14.10;30.70
4584;DHT22;2304;47.606;12.186;2023-04-06T10:58:06;13.50;29.80
4584;DHT22;2304;47.606;12.186;2023-04-06T11:03:09;13.60;30.00
4584;DHT22;2304;47.606;12.186;2023-04-06T11:08:22;14.00;30.40
4584;DHT22;2304;47.606;12.186;2023-04-06T11:13:24;14.60;30.70
4584;DHT22;2304;47.606;12.186;2023-04-06T11:18:27;15.20;31.70
4584;DHT22;2304;47.606;12.186;2023-04-06T11:23:29;14.50;28.20
4584;DHT22;2304;47.606;12.186;2023-04-06T11:28:31;14.30;29.90
4584;DHT22;2304;47.606;12.186;2023-04-06T11:33:37;15.00;31.10
4584;DHT22;2304;47.606;12.186;2023-04-06T11:38:39;14.90;30.30
4584;DHT22;2304;47.606;12.186;2023-04-06T11:43:47;14.70;30.40
4584;DHT22;2304;47.606;12.186;2023-04-06T11:48:50;14.50;29.30
4584;DHT22;2304;47.606;12.186;2023-04-06T11:53:52;14.60;29.10
4584;DHT22;2304;47.606;12.186;2023-04-06T11:58:58;14.50;28.20
4584;DHT22;2304;47.606;12.186;2023-04-06T12:04:01;14.80;28.80
4584;DHT22;2304;47.606;12.186;2023-04-06T12:09:03;14.90;28.50
4584;DHT22;2304;47.606;12.186;2023-04-06T12:14:05;14.10;28.20
4584;DHT22;2304;47.606;12.186;2023-04-06T12:19:09;13.70;29.60
4584;DHT22;2304;47.606;12.186;2023-04-06T12:24:11;14.20;29.80
4584;DHT22;2304;47.606;12.186;2023-04-06T12:29:13;13.90;28.90
4584;DHT22;2304;47.606;12.186;2023-04-06T12:34:16;13.60;29.10
4584;DHT22;2304;47.606;12.186;2023-04-06T12:39:18;13.60;29.20
4584;DHT22;2304;47.606;12.186;2023-04-06T12:44:20;13.30;29.80
4584;DHT22;2304;47.606;12.186;2023-04-06T12:49:26;13.40;30.90
4584;DHT22;2304;47.606;12.186;2023-04-06T12:54:29;13.40;31.10
4584;DHT22;2304;47.606;12.186;2023-04-06T12:59:31;13.50;32.10
4584;DHT22;2304;47.606;12.186;2023-04-06T13:04:37;14.10;30.80
4584;DHT22;2304;47.606;12.186;2023-04-06T13:09:39;14.20;29.70
4584;DHT22;2304;47.606;12.186;2023-04-06T13:14:40;14.30;30.00
4584;DHT22;2304;47.606;12.186;2023-04-06T13:19:44;14.40;29.40
4584;DHT22;2304;47.606;12.186;2023-04-06T13:24:46;14.30;29.10
4584;DHT22;2304;47.606;12.186;2023-04-06T13:29:47;14.10;29.00
4584;DHT22;2304;47.606;12.186;2023-04-06T13:34:54;13.80;28.50
4584;DHT22;2304;47.606;12.186;2023-04-06T13:39:56;13.70;29.00
4584;DHT22;2304;47.606;12.186;2023-04-06T13:44:58;13.90;28.60
4584;DHT22;2304;47.606;12.186;2023-04-06T13:50:02;14.00;29.10
4584;DHT22;2304;47.606;12.186;2023-04-06T13:55:05;14.20;29.60
4584;DHT22;2304;47.606;12.186;2023-04-06T14:00:08;14.30;30.30
4584;DHT22;2304;47.606;12.186;2023-04-06T14:05:13;14.20;29.10
4584;DHT22;2304;47.606;12.186;2023-04-06T14:10:15;14.20;28.30
4584;DHT22;2304;47.606;12.186;2023-04-06T14:15:17;13.80;29.40
4584;DHT22;2304;47.606;12.186;2023-04-06T14:20:21;13.90;29.40
4584;DHT22;2304;47.606;12.186;2023-04-06T14:25:22;13.80;29.80
4584;DHT22;2304;47.606;12.186;2023-04-06T14:30:25;13.60;29.20
4584;DHT22;2304;47.606;12.186;2023-04-06T14:35:29;13.80;29.40
4584;DHT22;2304;47.606;12.186;2023-04-06T14:40:35;13.70;29.30
4584;DHT22;2304;47.606;12.186;2023-04-06T14:45:37;13.40;29.40
4584;DHT22;2304;47.606;12.186;2023-04-06T14:50:41;13.80;29.50
4584;DHT22;2304;47.606;12.186;2023-04-06T14:55:46;14.00;29.10
4584;DHT22;2304;47.606;12.186;2023-04-06T15:00:55;13.60;28.60
4584;DHT22;2304;47.606;12.186;2023-04-06T15:05:58;13.50;29.60
4584;DHT22;2304;47.606;12.186;2023-04-06T15:11:00;13.50;29.70
4584;DHT22;2304;47.606;12.186;2023-04-06T15:16:02;13.60;29.80
4584;DHT22;2304;47.606;12.186;2023-04-06T15:21:05;13.40;29.50
4584;DHT22;2304;47.606;12.186;2023-04-06T15:26:07;13.40;29.70
4584;DHT22;2304;47.606;12.186;2023-04-06T15:31:15;13.40;30.70
4584;DHT22;2304;47.606;12.186;2023-04-06T15:36:23;13.30;30.90
4584;DHT22;2304;47.606;12.186;2023-04-06T15:41:26;13.40;30.60
4584;DHT22;2304;47.606;12.186;2023-04-06T15:46:28;13.40;30.10
4584;DHT22;2304;47.606;12.186;2023-04-06T15:51:31;13.20;30.10
4584;DHT22;2304;47.606;12.186;2023-04-06T15:56:34;12.90;30.10
4584;DHT22;2304;47.606;12.186;2023-04-06T16:01:35;13.00;30.80
4584;DHT22;2304;47.606;12.186;2023-04-06T16:06:39;12.90;30.80
4584;DHT22;2304;47.606;12.186;2023-04-06T16:11:41;12.80;31.00
4584;DHT22;2304;47.606;12.186;2023-04-06T16:16:43;12.70;31.50
4584;DHT22;2304;47.606;12.186;2023-04-06T16:21:46;12.70;31.60
4584;DHT22;2304;47.606;12.186;2023-04-06T16:26:48;12.70;31.70
4584;DHT22;2304;47.606;12.186;2023-04-06T16:31:50;12.70;31.90
4584;DHT22;2304;47.606;12.186;2023-04-06T16:36:55;12.70;31.40
4584;DHT22;2304;47.606;12.186;2023-04-06T16:41:57;12.60;31.80
4584;DHT22;2304;47.606;12.186;2023-04-06T16:46:59;12.50;31.80
4584;DHT22;2304;47.606;12.186;2023-04-06T16:52:02;12.40;32.20
4584;DHT22;2304;47.606;12.186;2023-04-06T16:57:05;12.30;32.00
4584;DHT22;2304;47.606;12.186;2023-04-06T17:02:07;12.20;32.20
4584;DHT22;2304;47.606;12.186;2023-04-06T17:07:10;12.20;34.40
4584;DHT22;2304;47.606;12.186;2023-04-06T17:12:12;12.20;35.80
4584;DHT22;2304;47.606;12.186;2023-04-06T17:17:14;12.10;34.40
4584;DHT22;2304;47.606;12.186;2023-04-06T17:22:17;12.00;34.30
4584;DHT22;2304;47.606;12.186;2023-04-06T17:27:20;11.80;34.20
4584;DHT22;2304;47.606;12.186;2023-04-06T17:32:23;11.70;33.40
4584;DHT22;2304;47.606;12.186;2023-04-06T17:37:28;11.60;34.00
4584;DHT22;2304;47.606;12.186;2023-04-06T17:42:30;11.60;34.60
4584;DHT22;2304;47.606;12.186;2023-04-06T17:47:32;11.50;34.20
4584;DHT22;2304;47.606;12.186;2023-04-06T17:52:35;11.40;35.00
4584;DHT22;2304;47.606;12.186;2023-04-06T17:57:37;11.30;35.90
4584;DHT22;2304;47.606;12.186;2023-04-06T18:02:38;11.20;36.50
4584;DHT22;2304;47.606;12.186;2023-04-06T18:07:42;11.00;37.20
4584;DHT22;2304;47.606;12.186;2023-04-06T18:12:43;10.80;37.80
4584;DHT22;2304;47.606;12.186;2023-04-06T18:17:45;10.70;38.20
4584;DHT22;2304;47.606;12.186;2023-04-06T18:22:49;10.60;38.60
4584;DHT22;2304;47.606;12.186;2023-04-06T18:27:50;10.50;38.90
4584;DHT22;2304;47.606;12.186;2023-04-06T18:32:52;10.40;38.80
4584;DHT22;2304;47.606;12.186;2023-04-06T18:37:58;10.30;39.40
4584;DHT22;2304;47.606;12.186;2023-04-06T18:43:00;10.20;40.50
4584;DHT22;2304;47.606;12.186;2023-04-06T18:48:02;10.10;40.40
4584;DHT22;2304;47.606;12.186;2023-04-06T18:53:06;10.00;40.70
4584;DHT22;2304;47.606;12.186;2023-04-06T18:58:07;9.90;41.50
4584;DHT22;2304;47.606;12.186;2023-04-06T19:03:09;9.80;41.40
4584;DHT22;2304;47.606;12.186;2023-04-06T19:08:13;9.80;43.10
4584;DHT22;2304;47.606;12.186;2023-04-06T19:13:15;9.60;42.50
4584;DHT22;2304;47.606;12.186;2023-04-06T19:18:17;9.60;43.00
4584;DHT22;2304;47.606;12.186;2023-04-06T19:23:20;9.40;42.80
4584;DHT22;2304;47.606;12.186;2023-04-06T19:28:23;9.30;43.30
4584;DHT22;2304;47.606;12.186;2023-04-06T19:33:25;9.20;42.80
4584;DHT22;2304;47.606;12.186;2023-04-06T19:38:28;9.00;43.40
4584;DHT22;2304;47.606;12.186;2023-04-06T19:43:30;9.00;43.80
4584;DHT22;2304;47.606;12.186;2023-04-06T19:48:32;9.10;43.50
4584;DHT22;2304;47.606;12.186;2023-04-06T19:53:35;8.90;43.40
4584;DHT22;2304;47.606;12.186;2023-04-06T19:58:37;8.80;43.40
4584;DHT22;2304;47.606;12.186;2023-04-06T20:03:39;8.60;43.30
4584;DHT22;2304;47.606;12.186;2023-04-06T20:08:42;8.60;43.20
4584;DHT22;2304;47.606;12.186;2023-04-06T20:13:44;8.50;43.60
4584;DHT22;2304;47.606;12.186;2023-04-06T20:18:46;8.60;44.00
4584;DHT22;2304;47.606;12.186;2023-04-06T20:23:49;8.40;43.70
4584;DHT22;2304;47.606;12.186;2023-04-06T20:28:51;8.30;43.70
4584;DHT22;2304;47.606;12.186;2023-04-06T20:33:52;8.50;44.20
4584;DHT22;2304;47.606;12.186;2023-04-06T20:38:55;8.20;44.20
4584;DHT22;2304;47.606;12.186;2023-04-06T20:43:57;8.10;44.70
4584;DHT22;2304;47.606;12.186;2023-04-06T20:48:59;8.00;45.30
4584;DHT22;2304;47.606;12.186;2023-04-06T20:54:02;7.80;45.50
4584;DHT22;2304;47.606;12.186;2023-04-06T20:59:04;7.70;45.80
4584;DHT22;2304;47.606;12.186;2023-04-06T21:04:06;7.60;46.30
4584;DHT22;2304;47.606;12.186;2023-04-06T21:09:09;7.50;47.00
4584;DHT22;2304;47.606;12.186;2023-04-06T21:14:11;7.50;47.00
4584;DHT22;2304;47.606;12.186;2023-04-06T21:19:12;7.50;46.90
4584;DHT22;2304;47.606;12.186;2023-04-06T21:24:16;7.40;46.90
4584;DHT22;2304;47.606;12.186;2023-04-06T21:29:17;7.30;47.30
4584;DHT22;2304;47.606;12.186;2023-04-06T21:34:19;7.50;48.60
4584;DHT22;2304;47.606;12.186;2023-04-06T21:39:23;7.10;48.60
4584;DHT22;2304;47.606;12.186;2023-04-06T21:44:24;7.10;49.30
4584;DHT22;2304;47.606;12.186;2023-04-06T21:49:26;7.00;49.70
4584;DHT22;2304;47.606;12.186;2023-04-06T21:54:32;7.00;49.10
4584;DHT22;2304;47.606;12.186;2023-04-06T21:59:34;7.00;48.80
4584;DHT22;2304;47.606;12.186;2023-04-06T22:04:36;6.90;48.50
4584;DHT22;2304;47.606;12.186;2023-04-06T22:09:39;6.90;48.70
4584;DHT22;2304;47.606;12.186;2023-04-06T22:14:41;6.90;48.70
4584;DHT22;2304;47.606;12.186;2023-04-06T22:19:43;6.80;49.60
4584;DHT22;2304;47.606;12.186;2023-04-06T22:24:46;6.80;49.70
4584;DHT22;2304;47.606;12.186;2023-04-06T22:29:48;6.80;50.10
4584;DHT22;2304;47.606;12.186;2023-04-06T22:34:49;6.70;50.30
4584;DHT22;2304;47.606;12.186;2023-04-06T22:39:53;6.80;49.40
4584;DHT22;2304;47.606;12.186;2023-04-06T22:44:55;6.70;49.50
4584;DHT22;2304;47.606;12.186;2023-04-06T22:49:57;6.70;49.80
4584;DHT22;2304;47.606;12.186;2023-04-06T22:55:00;6.70;49.60
4584;DHT22;2304;47.606;12.186;2023-04-06T23:00:02;6.70;49.60
4584;DHT22;2304;47.606;12.186;2023-04-06T23:05:06;6.70;49.80
4584;DHT22;2304;47.606;12.186;2023-04-06T23:10:09;6.60;49.60
4584;DHT22;2304;47.606;12.186;2023-04-06T23:15:11;6.50;50.60
4584;DHT22;2304;47.606;12.186;2023-04-06T23:20:13;6.50;51.40
4584;DHT22;2304;47.606;12.186;2023-04-06T23:25:16;6.50;51.10
4584;DHT22;2304;47.606;12.186;2023-04-06T23:30:18;6.40;50.90
4584;DHT22;2304;47.606;12.186;2023-04-06T23:35:20;6.40;50.20
4584;DHT22;2304;47.606;12.186;2023-04-06T23:40:23;6.40;49.90
4584;DHT22;2304;47.606;12.186;2023-04-06T23:45:25;6.40;50.50
4584;DHT22;2304;47.606;12.186;2023-04-06T23:50:27;6.20;50.80
4584;DHT22;2304;47.606;12.186;2023-04-06T23:55:30;6.20;50.70
